Time;durP1;ratioP1;P1;durP2;ratioP2;P2;SDS_P1;SDS_P2;PMS_P1;PMS_P2;Temp;Humidity;BMP_temperature;BMP_pressure;BME280_temperature;BME280_humidity;BME280_pressure;Samples;Min_cycle;Max_cycle;Signal;HPM_P1;HPM_P2
2023/01/10 00:00:06;;;;;;;15.43;10.18;;;;;;;8.01;66.22;99399.72;5005538;27;97159;-79
2023/01/10 00:02:32;;;;;;;17.13;10.07;;;;;;;8.01;65.82;99399.72;5022198;27;98662;-78
2023/01/10 00:04:57;;;;;;;18.65;9.75;;;;;;;8.05;65.91;99403.91;5023701;27;97690;-79
2023/01/10 00:07:23;;;;;;;18.08;10.00;;;;;;;7.85;66.19;99365.50;5011928;27;101151;-78
2023/01/10 00:09:48;;;;;;;12.98;8.63;;;;;;;8.05;65.86;99400.44;5001369;27;97431;-78
2023/01/10 00:14:58;;;;;;;16.30;9.63;;;;;;;7.98;65.67;99386.75;5021391;27;101517;-79
2023/01/10 00:17:23;;;;;;;15.95;9.57;;;;;;;8.06;65.90;99397.78;5033389;27;97794;-80
2023/01/10 00:19:49;;;;;;;14.60;9.38;;;;;;;8.05;66.05;99400.44;5020275;27;97431;-78
2023/01/10 00:22:17;;;;;;;13.88;9.00;;;;;;;8.05;65.82;99406.50;5014502;27;97716;-78
2023/01/10 00:24:43;;;;;;;15.45;8.98;;;;;;;8.03;65.69;99410.09;5006658;27;101522;-78
2023/01/10 00:27:10;;;;;;;15.70;9.38;;;;;;;8.05;65.80;99411.75;5020144;28;101017;-78
2023/01/10 00:29:36;;;;;;;14.70;9.43;;;;;;;8.01;65.83;99401.47;5001778;27;97284;-79
2023/01/10 00:32:01;;;;;;;15.20;9.88;;;;;;;8.00;65.97;99405.88;5024831;27;96910;-78
2023/01/10 00:34:27;;;;;;;15.13;9.75;;;;;;;8.07;65.90;99416.94;5048837;27;97356;-79
2023/01/10 00:36:52;;;;;;;14.00;9.38;;;;;;;8.01;65.98;99409.31;5002493;27;101819;-78
2023/01/10 00:39:19;;;;;;;15.98;10.07;;;;;;;8.04;65.84;99419.66;5026223;27;97032;-79
2023/01/10 00:44:29;;;;;;;17.27;9.40;;;;;;;8.00;66.11;99418.94;5029037;27;98199;-79
2023/01/10 00:46:55;;;;;;;15.15;10.07;;;;;;;8.04;66.09;99423.13;5005204;27;101252;-79
2023/01/10 00:49:20;;;;;;;13.95;9.70;;;;;;;7.98;65.99;99420.75;5007243;27;96876;-80
2023/01/10 00:51:46;;;;;;;16.63;9.68;;;;;;;7.99;66.28;99419.81;5021846;27;97243;-79
2023/01/10 00:54:13;;;;;;;14.55;10.00;;;;;;;7.99;65.89;99432.88;5032569;27;98187;-78
2023/01/10 00:56:38;;;;;;;16.38;9.93;;;;;;;7.99;66.21;99437.28;5013435;28;101527;-79
2023/01/10 00:59:04;;;;;;;15.68;10.90;;;;;;;7.96;66.06;99438.22;5009447;27;96770;-79
2023/01/10 01:01:30;;;;;;;17.52;9.88;;;;;;;7.88;66.11;99425.47;5033545;27;96958;-78
2023/01/10 01:03:58;;;;;;;14.20;9.05;;;;;;;7.98;66.07;99446.88;5035907;27;101396;-79
2023/01/10 01:06:24;;;;;;;16.02;10.48;;;;;;;7.88;65.79;99435.91;5052677;27;100906;-79
2023/01/10 01:08:50;;;;;;;18.92;10.23;;;;;;;7.96;65.75;99453.91;5058001;27;97288;-78
2023/01/10 01:11:16;;;;;;;18.15;11.57;;;;;;;7.99;65.69;99458.19;5047265;27;97186;-79
2023/01/10 01:13:41;;;;;;;17.10;10.70;;;;;;;7.98;65.99;99459.94;5068243;27;97782;-78
2023/01/10 01:16:07;;;;;;;14.98;10.80;;;;;;;7.99;65.93;99456.41;5034999;27;101473;-79
2023/01/10 01:18:33;;;;;;;19.10;10.73;;;;;;;7.96;66.10;99461.75;5064345;27;97328;-79
2023/01/10 01:21:02;;;;;;;18.10;10.38;;;;;;;7.98;65.75;99467.78;5061230;27;97018;-79
2023/01/10 01:23:29;;;;;;;18.38;10.85;;;;;;;7.90;65.93;99460.22;5053153;27;97671;-79
2023/01/10 01:25:55;;;;;;;16.42;10.00;;;;;;;7.98;65.71;99472.16;5049274;27;98206;-79
2023/01/10 01:28:21;;;;;;;16.90;9.80;;;;;;;7.97;65.36;99473.06;5051971;27;96798;-80
2023/01/10 01:30:47;;;;;;;17.58;10.45;;;;;;;7.99;65.95;99482.53;5053610;27;96776;-79
2023/01/10 01:33:13;;;;;;;17.00;10.80;;;;;;;7.99;66.06;99484.31;5068630;27;97822;-79
2023/01/10 01:35:43;;;;;;;17.83;11.30;;;;;;;7.97;65.57;99481.78;5041142;27;101320;-79
2023/01/10 01:38:08;;;;;;;18.60;11.32;;;;;;;7.99;65.97;99484.31;5037851;27;97175;-79
2023/01/10 01:40:35;;;;;;;20.55;12.07;;;;;;;7.93;65.87;99477.53;5059894;27;96795;-78
2023/01/10 01:43:01;;;;;;;17.77;11.27;;;;;;;7.94;65.94;99477.50;5060913;27;101148;-79
2023/01/10 01:45:36;;;;;;;22.73;11.98;;;;;;;7.98;66.50;99483.47;5049163;27;97966;-78
2023/01/10 01:48:22;;;;;;;18.30;11.55;;;;;;;7.96;66.65;99476.59;5045988;27;96798;-79
2023/01/10 01:51:04;;;;;;;15.98;11.15;;;;;;;7.87;66.46;99469.94;5062069;27;96927;-79
2023/01/10 01:53:41;;;;;;;19.30;12.20;;;;;;;7.97;66.57;99488.72;5048640;27;101829;-79
2023/01/10 01:56:19;;;;;;;16.63;10.88;;;;;;;7.96;66.57;99494.88;5042309;27;101623;-80
2023/01/10 01:58:51;;;;;;;19.08;11.00;;;;;;;7.77;66.54;99465.97;5069723;27;97466;-79
2023/01/10 02:01:16;;;;;;;;;;;;;;;7.89;66.45;99500.34;5070998;27;96897;-78
2023/01/10 02:03:44;;;;;;;15.32;10.07;;;;;;;7.85;66.30;99488.28;5052156;27;101292;-78
2023/01/10 02:06:11;;;;;;;18.38;12.52;;;;;;;7.82;66.57;99484.91;5033916;27;101124;-78
2023/01/10 02:08:39;;;;;;;16.75;10.52;;;;;;;7.89;66.38;99502.09;5069738;27;97338;-79
2023/01/10 02:11:09;;;;;;;17.45;11.38;;;;;;;7.90;66.16;99506.41;5044698;27;97422;-78
2023/01/10 02:13:41;;;;;;;17.15;10.52;;;;;;;7.83;66.22;99497.94;5046840;27;101578;-79
2023/01/10 02:16:07;;;;;;;17.05;10.50;;;;;;;7.88;66.23;99513.44;5071938;27;97339;-79
2023/01/10 02:18:34;;;;;;;17.92;10.35;;;;;;;7.91;66.12;99500.25;5062267;27;96766;-79
2023/01/10 02:21:16;;;;;;;15.20;10.18;;;;;;;7.84;66.51;99497.03;5048213;27;97164;-78
2023/01/10 02:23:51;;;;;;;16.95;10.27;;;;;;;7.89;66.49;99513.41;5056851;27;100871;-78
2023/01/10 02:26:54;;;;;;;18.30;10.98;;;;;;;7.87;66.07;99520.44;5060323;27;101419;-78
2023/01/10 02:29:25;;;;;;;17.58;10.18;;;;;;;7.88;66.26;99516.94;5060443;27;97509;-78
2023/01/10 02:32:15;;;;;;;18.23;10.45;;;;;;;7.87;65.74;99522.19;5068745;27;96919;-79
2023/01/10 02:34:57;;;;;;;17.83;10.68;;;;;;;7.84;66.26;99517.94;5039835;27;101452;-79
2023/01/10 02:37:26;;;;;;;19.17;10.20;;;;;;;7.84;66.21;99528.38;5065602;27;101222;-78
2023/01/10 02:40:12;;;;;;;15.20;9.38;;;;;;;7.83;66.17;99534.53;5074424;27;97178;-78
2023/01/10 02:43:05;;;;;;;16.02;9.95;;;;;;;7.85;65.80;99542.28;5019990;27;96795;-79
2023/01/10 02:45:35;;;;;;;14.85;9.27;;;;;;;7.76;66.01;99524.34;5035503;27;100925;-79
2023/01/10 02:48:01;;;;;;;15.68;9.38;;;;;;;7.85;66.17;99547.50;5053134;27;98055;-79
2023/01/10 02:50:42;;;;;;;13.48;9.00;;;;;;;7.84;65.81;99557.13;5065735;27;96828;-81
2023/01/10 02:53:12;;;;;;;14.90;9.25;;;;;;;7.81;66.30;99543.31;5038855;27;97273;-79
2023/01/10 02:55:41;;;;;;;15.43;9.05;;;;;;;7.74;66.17;99554.88;5045273;27;101341;-79
2023/01/10 02:58:48;;;;;;;14.70;9.52;;;;;;;7.81;66.46;99575.53;5056974;27;101463;-78
2023/01/10 03:02:05;;;;;;;15.80;9.40;;;;;;;7.80;65.86;99573.81;5031880;27;96878;-78
2023/01/10 03:04:54;;;;;;;22.17;9.82;;;;;;;7.81;66.35;99582.50;5013419;27;97463;-79
2023/01/10 03:07:40;;;;;;;14.93;8.68;;;;;;;7.82;66.60;99585.06;5031968;27;101572;-79
2023/01/10 03:10:18;;;;;;;15.35;8.95;;;;;;;7.83;66.29;99588.56;5047971;27;101477;-78
2023/01/10 03:13:21;;;;;;;14.07;7.90;;;;;;;7.83;66.61;99592.00;5046711;27;97349;-80
2023/01/10 03:15:47;;;;;;;15.00;8.65;;;;;;;7.84;66.20;99587.63;5039044;27;97847;-79
2023/01/10 03:18:27;;;;;;;11.05;7.32;;;;;;;7.84;66.16;99598.09;5049026;27;98552;-80
2023/01/10 03:20:54;;;;;;;14.23;7.47;;;;;;;7.85;66.41;99597.16;5084809;27;97948;-79
2023/01/10 03:23:21;;;;;;;11.95;7.28;;;;;;;7.84;66.24;99601.53;5049592;27;97334;-79
2023/01/10 03:25:49;;;;;;;12.70;6.60;;;;;;;7.78;66.20;99590.47;5030462;27;97422;-78
2023/01/10 03:28:28;;;;;;;9.57;6.05;;;;;;;7.85;66.42;99616.34;5057823;27;98073;-78
2023/01/10 03:30:58;;;;;;;11.15;6.35;;;;;;;7.75;65.99;99596.63;5054634;27;101343;-79
2023/01/10 03:33:27;;;;;;;7.95;5.00;;;;;;;7.87;66.09;99624.09;5070790;27;97076;-79
2023/01/10 03:36:15;;;;;;;9.02;5.22;;;;;;;7.90;66.21;99632.69;5072228;27;96947;-78
2023/01/10 03:38:41;;;;;;;9.20;5.50;;;;;;;7.91;66.26;99652.72;5059821;27;101539;-78
2023/01/10 03:41:10;;;;;;;10.30;5.40;;;;;;;7.90;66.13;99644.91;5054701;27;101408;-79
2023/01/10 03:46:54;;;;;;;8.32;4.75;;;;;;;7.88;65.96;99638.88;5079634;27;97051;-78
2023/01/10 03:49:21;;;;;;;10.32;5.03;;;;;;;7.88;66.40;99651.94;5048986;27;101041;-78
2023/01/10 03:51:48;;;;;;;8.88;4.85;;;;;;;7.93;66.57;99657.88;5054201;27;97854;-78
2023/01/10 03:54:15;;;;;;;11.20;4.90;;;;;;;7.91;66.44;99660.56;5059386;27;96786;-78
2023/01/10 03:56:51;;;;;;;7.80;4.47;;;;;;;7.89;66.10;99662.34;5058857;27;97645;-78
2023/01/10 03:59:20;;;;;;;8.15;5.00;;;;;;;7.89;66.05;99657.13;5064091;27;97446;-79
2023/01/10 04:01:46;;;;;;;7.53;4.00;;;;;;;7.95;65.89;99671.75;5052764;27;101468;-78
2023/01/10 04:04:12;;;;;;;7.10;3.47;;;;;;;7.94;66.50;99672.63;5042675;27;96737;-78
2023/01/10 04:06:37;;;;;;;5.57;3.58;;;;;;;7.90;65.81;99668.44;5049870;27;97271;-79
2023/01/10 04:09:03;;;;;;;7.95;4.43;;;;;;;7.89;66.10;99670.19;5049520;27;99642;-78
2023/01/10 04:11:28;;;;;;;7.25;3.90;;;;;;;7.97;66.09;99680.41;5056511;27;101418;-79
2023/01/10 04:13:54;;;;;;;6.10;4.18;;;;;;;7.90;65.67;99678.88;5071706;27;96823;-79
2023/01/10 04:16:20;;;;;;;6.45;4.30;;;;;;;7.93;65.86;99687.47;5062529;27;96700;-78
2023/01/10 04:18:46;;;;;;;7.43;4.57;;;;;;;7.94;66.41;99691.81;5055100;27;100165;-79
2023/01/10 04:21:11;;;;;;;6.15;3.65;;;;;;;7.97;66.22;99689.97;5026442;27;100701;-78
2023/01/10 04:23:37;;;;;;;7.22;4.20;;;;;;;7.93;66.25;99697.91;5068188;27;96766;-79
2023/01/10 04:26:02;;;;;;;7.80;4.40;;;;;;;7.90;65.90;99695.41;5038051;27;97136;-78
2023/01/10 04:28:28;;;;;;;8.25;4.25;;;;;;;7.81;66.11;99684.41;5039834;27;101083;-78
2023/01/10 04:30:53;;;;;;;8.40;5.00;;;;;;;7.93;65.99;99707.53;5051127;27;97973;-78
2023/01/10 04:33:19;;;;;;;8.18;3.65;;;;;;;7.94;66.10;99720.56;5049405;27;96709;-79
2023/01/10 04:35:49;;;;;;;7.10;4.22;;;;;;;7.93;66.04;99721.44;5055275;27;96986;-78
2023/01/10 04:38:14;;;;;;;6.60;4.20;;;;;;;7.96;66.39;99724.88;5057261;27;101184;-78
2023/01/10 04:40:41;;;;;;;6.22;4.07;;;;;;;7.86;66.12;99716.47;5068452;27;97828;-79
2023/01/10 04:43:07;;;;;;;7.20;4.38;;;;;;;7.94;65.81;99732.75;5027516;27;97324;-78
2023/01/10 04:45:32;;;;;;;5.18;3.72;;;;;;;7.92;66.15;99738.03;5068240;27;97177;-79
2023/01/10 04:47:59;;;;;;;5.70;3.92;;;;;;;7.82;66.41;99727.91;5049230;27;97514;-78
2023/01/10 04:50:25;;;;;;;7.72;4.43;;;;;;;7.85;65.87;99743.50;5056469;27;99478;-79
2023/01/10 04:52:50;;;;;;;6.75;4.07;;;;;;;7.80;65.92;99742.81;5027132;27;97276;-78
2023/01/10 04:55:16;;;;;;;7.50;4.50;;;;;;;7.91;65.84;99758.97;5029775;27;97179;-78
2023/01/10 04:57:41;;;;;;;6.82;4.15;;;;;;;7.93;66.13;99770.25;5059169;27;97583;-79
2023/01/10 05:00:08;;;;;;;4.82;3.33;;;;;;;7.87;66.06;99762.59;5046674;27;100751;-79
2023/01/10 05:02:34;;;;;;;8.63;3.78;;;;;;;7.86;66.02;99766.97;5054021;27;97658;-80
2023/01/10 05:04:59;;;;;;;4.85;3.67;;;;;;;7.83;66.05;99769.69;5033262;27;97186;-78
2023/01/10 05:07:25;;;;;;;7.13;3.92;;;;;;;7.90;66.41;99781.66;5047591;27;101178;-79
2023/01/10 05:09:50;;;;;;;6.03;3.70;;;;;;;7.79;66.37;99769.81;5066520;27;97863;-78
2023/01/10 05:12:16;;;;;;;6.63;4.00;;;;;;;7.84;66.37;99778.38;5040989;27;97793;-79
2023/01/10 05:14:41;;;;;;;8.70;3.75;;;;;;;7.89;66.53;99790.41;5035546;27;97751;-79
2023/01/10 05:17:07;;;;;;;8.90;4.22;;;;;;;7.86;66.63;99789.66;5024088;27;101240;-79
2023/01/10 05:19:32;;;;;;;6.95;3.80;;;;;;;7.84;66.21;99783.63;5039132;27;101854;-79
2023/01/10 05:21:58;;;;;;;5.90;3.92;;;;;;;7.89;66.47;99807.84;5066696;27;97195;-78
2023/01/10 05:24:24;;;;;;;6.07;3.83;;;;;;;7.87;66.43;99805.28;5041426;27;96884;-79
2023/01/10 05:26:49;;;;;;;5.57;3.85;;;;;;;7.88;66.25;99817.44;5035131;27;101270;-78
2023/01/10 05:29:15;;;;;;;6.82;3.95;;;;;;;7.90;66.71;99822.63;5047086;27;97289;-78
2023/01/10 05:31:41;;;;;;;6.45;4.43;;;;;;;7.88;66.23;99820.06;5034595;27;97296;-79
2023/01/10 05:34:07;;;;;;;7.30;4.35;;;;;;;7.68;66.45;99794.53;5044946;27;97387;-79
2023/01/10 05:36:32;;;;;;;6.20;4.10;;;;;;;7.90;66.41;99833.06;5057050;27;101575;-78
2023/01/10 05:38:58;;;;;;;6.47;3.92;;;;;;;7.71;66.28;99806.66;5039667;27;100941;-78
2023/01/10 05:41:23;;;;;;;5.80;4.15;;;;;;;7.89;66.53;99839.22;5065645;27;96797;-79
2023/01/10 05:43:49;;;;;;;6.72;3.95;;;;;;;7.89;66.45;99836.59;5048923;27;97196;-78
2023/01/10 05:46:15;;;;;;;6.28;4.07;;;;;;;7.87;66.15;99835.78;5035683;27;101363;-80
2023/01/10 05:48:40;;;;;;;7.20;4.03;;;;;;;7.87;66.39;99843.63;5036106;27;101141;-80
2023/01/10 05:51:06;;;;;;;6.38;3.90;;;;;;;7.82;66.19;99840.28;5062789;27;96699;-78
2023/01/10 05:53:50;;;;;;;6.70;4.22;;;;;;;7.83;66.13;99849.84;5036585;27;97535;-78
2023/01/10 05:56:16;;;;;;;7.97;3.88;;;;;;;7.86;66.19;99858.44;5042203;27;100425;-79
2023/01/10 05:58:42;;;;;;;7.30;3.88;;;;;;;7.83;66.51;99863.78;5041631;27;101355;-79
2023/01/10 06:01:08;;;;;;;6.22;4.05;;;;;;;7.80;66.47;99849.94;5040960;27;96852;-79
2023/01/10 06:03:34;;;;;;;6.82;4.07;;;;;;;7.79;66.61;99864.75;5062603;27;96926;-78
2023/01/10 06:06:02;;;;;;;6.43;3.97;;;;;;;7.78;66.54;99864.81;5036588;27;101220;-79
2023/01/10 06:08:27;;;;;;;8.50;4.10;;;;;;;7.84;66.52;99881.16;5051744;27;100977;-78
2023/01/10 06:10:53;;;;;;;5.28;3.50;;;;;;;7.75;66.63;99859.66;5052636;27;96741;-79
2023/01/10 06:13:19;;;;;;;6.10;3.50;;;;;;;7.86;66.67;99887.19;5048023;27;97194;-78
2023/01/10 06:15:44;;;;;;;8.40;4.28;;;;;;;7.78;66.73;99883.09;5051009;27;97485;-78
2023/01/10 06:18:10;;;;;;;7.45;3.90;;;;;;;7.84;66.54;99901.22;5058020;27;97955;-77
2023/01/10 06:20:35;;;;;;;5.68;3.95;;;;;;;7.82;66.92;99905.59;5056594;27;97127;-77
2023/01/10 06:23:03;;;;;;;7.88;3.95;;;;;;;7.80;66.43;99900.44;5061136;27;97188;-77
2023/01/10 06:25:30;;;;;;;6.43;3.47;;;;;;;7.79;66.84;99913.53;5048964;27;98607;-77
2023/01/10 06:27:56;;;;;;;10.88;4.25;;;;;;;7.79;66.75;99922.22;5039565;27;101291;-77
2023/01/10 06:30:22;;;;;;;5.55;3.38;;;;;;;7.83;66.48;99929.09;5062011;27;97582;-78
2023/01/10 06:32:47;;;;;;;5.80;3.50;;;;;;;7.81;67.15;99932.66;5046028;27;96887;-77
2023/01/10 06:35:13;;;;;;;4.45;3.45;;;;;;;7.71;66.82;99927.69;5045499;27;101136;-76
2023/01/10 06:37:38;;;;;;;5.57;3.55;;;;;;;7.82;66.76;99936.97;5031102;27;101218;-76
2023/01/10 06:40:05;;;;;;;7.28;3.95;;;;;;;7.83;66.73;99946.53;5056663;27;97283;-77
2023/01/10 06:42:31;;;;;;;6.70;4.00;;;;;;;7.82;66.90;99947.41;5050361;27;96719;-78
2023/01/10 06:44:56;;;;;;;8.50;3.83;;;;;;;7.81;67.08;99962.25;5052670;27;98129;-80
2023/01/10 06:47:22;;;;;;;6.75;3.97;;;;;;;7.79;66.44;99957.97;5065961;27;97457;-81
2023/01/10 06:49:47;;;;;;;8.23;4.05;;;;;;;7.78;66.62;99970.19;5073884;27;96862;-81
2023/01/10 06:52:13;;;;;;;5.45;3.35;;;;;;;7.81;66.58;99979.69;5053736;27;96864;-81
2023/01/10 06:54:40;;;;;;;10.43;4.40;;;;;;;7.81;66.71;99975.31;5065945;27;101033;-81
2023/01/10 06:57:06;;;;;;;6.10;3.75;;;;;;;7.82;67.08;99987.47;5044606;27;101704;-82
2023/01/10 06:59:32;;;;;;;7.40;4.00;;;;;;;7.78;67.03;99991.09;5074859;27;98306;-81
2023/01/10 07:01:57;;;;;;;6.30;3.25;;;;;;;7.74;67.00;99983.34;5066882;27;97243;-81
2023/01/10 07:04:23;;;;;;;4.85;3.15;;;;;;;7.77;66.68;99997.22;5056779;27;101415;-80
2023/01/10 07:06:48;;;;;;;6.78;3.47;;;;;;;7.78;66.71;100006.75;5043622;27;97322;-81
2023/01/10 07:09:14;;;;;;;5.38;3.58;;;;;;;7.76;66.94;100010.31;5049301;27;97231;-80
2023/01/10 07:11:40;;;;;;;6.18;3.55;;;;;;;7.69;67.17;99994.81;5026663;27;97222;-81
2023/01/10 07:14:05;;;;;;;6.32;3.55;;;;;;;7.75;67.00;100014.69;5043378;27;101505;-79
2023/01/10 07:16:31;;;;;;;6.80;3.65;;;;;;;7.82;67.01;100021.44;5040744;27;100743;-82
2023/01/10 07:18:57;;;;;;;7.32;4.07;;;;;;;7.79;66.75;100020.69;5071617;27;96923;-81
2023/01/10 07:21:23;;;;;;;7.32;3.63;;;;;;;7.81;66.94;100027.56;5048302;27;98427;-81
2023/01/10 07:23:49;;;;;;;7.03;3.80;;;;;;;7.82;67.02;100025.81;5071539;27;103264;-81
2023/01/10 07:26:16;;;;;;;6.07;3.22;;;;;;;7.84;67.27;100032.72;5070289;27;97774;-81
2023/01/10 07:28:43;;;;;;;9.38;4.13;;;;;;;7.83;67.00;100031.00;5070437;27;97244;-82
2023/01/10 07:31:09;;;;;;;7.25;3.92;;;;;;;7.85;66.93;100037.06;5070275;27;97238;-80
2023/01/10 07:33:35;;;;;;;9.55;4.80;;;;;;;7.84;67.11;100035.34;5046014;27;100444;-81
2023/01/10 07:36:01;;;;;;;12.18;4.03;;;;;;;7.87;66.83;100043.09;5040902;27;101019;-81
2023/01/10 07:38:27;;;;;;;12.07;4.45;;;;;;;7.84;66.74;100037.94;5073628;27;96852;-81
2023/01/10 07:40:53;;;;;;;7.72;4.47;;;;;;;7.89;67.02;100056.13;5070312;27;97626;-82
2023/01/10 07:43:18;;;;;;;8.65;4.45;;;;;;;7.86;66.82;100051.00;5050420;27;101512;-76
2023/01/10 07:45:44;;;;;;;8.77;4.47;;;;;;;7.90;67.05;100060.44;5058633;27;97404;-78
2023/01/10 07:48:09;;;;;;;10.00;4.50;;;;;;;7.87;67.27;100069.22;5069664;27;96917;-76
2023/01/10 07:50:36;;;;;;;8.75;4.75;;;;;;;7.88;66.70;100070.97;5057860;27;96870;-76
2023/01/10 07:53:03;;;;;;;9.60;4.18;;;;;;;7.88;67.37;100068.34;5054585;27;98480;-76
2023/01/10 07:55:29;;;;;;;7.85;4.10;;;;;;;7.88;67.37;100072.69;5056202;27;97324;-75
2023/01/10 07:57:55;;;;;;;8.82;4.15;;;;;;;7.91;67.18;100076.09;5053566;27;99384;-76
2023/01/10 08:00:21;;;;;;;8.82;4.03;;;;;;;7.93;66.89;100081.25;5045542;27;97015;-77
2023/01/10 08:02:51;;;;;;;9.10;4.40;;;;;;;7.92;67.08;100084.78;5003134;28;100977;-77
2023/01/10 08:05:17;;;;;;;10.05;4.35;;;;;;;7.82;67.04;100072.84;4997229;27;101986;-76
2023/01/10 08:07:42;;;;;;;8.05;4.07;;;;;;;7.89;67.35;100095.31;4999859;27;97211;-80
2023/01/10 08:10:08;;;;;;;5.97;4.35;;;;;;;7.89;67.34;100101.41;5015916;27;97507;-80
2023/01/10 08:12:34;;;;;;;6.93;3.97;;;;;;;7.77;67.54;100072.16;5006057;27;101814;-80
2023/01/10 08:15:00;;;;;;;8.90;4.80;;;;;;;7.93;67.36;100105.66;5002334;28;101257;-77
2023/01/10 08:17:25;;;;;;;10.57;5.07;;;;;;;7.94;67.09;100115.22;5022659;27;97040;-78
2023/01/10 08:19:51;;;;;;;8.88;5.07;;;;;;;7.93;67.25;100113.47;5001077;28;96997;-76
2023/01/10 08:22:16;;;;;;;11.95;5.00;;;;;;;7.93;67.24;100115.25;5018404;27;101751;-74
2023/01/10 08:24:42;;;;;;;7.65;4.70;;;;;;;7.83;67.67;100109.41;5033069;27;97553;-75
2023/01/10 08:27:07;;;;;;;10.52;4.82;;;;;;;7.82;67.36;100110.28;5012824;27;96902;-74
2023/01/10 08:29:33;;;;;;;8.73;4.47;;;;;;;7.96;67.38;100130.00;5029420;27;97036;-75
2023/01/10 08:31:58;;;;;;;7.70;4.40;;;;;;;7.96;67.46;100132.59;5027525;27;100396;-76
2023/01/10 08:34:25;;;;;;;8.57;4.70;;;;;;;7.90;67.35;100123.16;5036927;27;101727;-78
2023/01/10 08:36:51;;;;;;;8.40;4.25;;;;;;;7.93;67.37;100126.56;5005537;28;96891;-75
2023/01/10 08:39:19;;;;;;;5.97;3.80;;;;;;;7.95;67.49;100136.97;5033932;27;97156;-74
2023/01/10 08:41:45;;;;;;;9.23;5.60;;;;;;;8.02;67.35;100142.91;5028799;27;97412;-74
2023/01/10 08:44:12;;;;;;;11.02;4.35;;;;;;;7.89;67.09;100117.09;5012813;28;101523;-77
2023/01/10 08:46:37;;;;;;;7.53;4.20;;;;;;;7.97;67.56;100129.97;5034006;27;97058;-73
2023/01/10 08:49:03;;;;;;;7.93;4.07;;;;;;;8.02;67.59;100142.91;5041157;27;96947;-73
2023/01/10 08:51:28;;;;;;;8.45;4.18;;;;;;;8.00;67.34;100127.28;5018057;27;101961;-76
2023/01/10 08:53:54;;;;;;;8.02;4.30;;;;;;;7.95;66.87;100129.13;5004390;27;99086;-77
2023/01/10 08:56:20;;;;;;;6.85;3.90;;;;;;;8.05;66.73;100148.91;5014124;27;97805;-78
2023/01/10 08:58:45;;;;;;;8.57;4.03;;;;;;;8.09;67.00;100149.69;4997790;27;97366;-79
2023/01/10 09:01:13;;;;;;;6.63;3.90;;;;;;;8.08;67.18;100155.81;5036298;27;99203;-76
2023/01/10 09:03:39;;;;;;;9.95;3.88;;;;;;;8.13;67.00;100159.16;5017470;27;101440;-77
2023/01/10 09:06:05;;;;;;;9.57;4.38;;;;;;;8.12;66.66;100158.31;5048316;27;97299;-77
2023/01/10 09:08:30;;;;;;;5.50;3.25;;;;;;;8.16;66.69;100165.16;5043222;27;97035;-78
2023/01/10 09:10:59;;;;;;;5.32;3.40;;;;;;;8.16;66.90;100169.53;5055030;27;97980;-78
2023/01/10 09:13:25;;;;;;;9.00;3.90;;;;;;;7.99;66.80;100138.59;5036990;27;97808;-77
2023/01/10 09:15:51;;;;;;;5.70;4.13;;;;;;;8.18;66.71;100172.13;5042869;27;96846;-80
2023/01/10 09:18:17;;;;;;;5.65;3.58;;;;;;;8.17;66.34;100176.47;5056415;27;98320;-77
2023/01/10 09:20:44;;;;;;;5.68;3.63;;;;;;;8.22;66.55;100178.97;5055204;27;97914;-77
2023/01/10 09:23:18;;;;;;;6.55;3.75;;;;;;;8.25;66.54;100181.50;5025296;27;101482;-80
2023/01/10 09:25:52;;;;;;;7.90;4.07;;;;;;;8.25;66.51;100181.50;5061903;27;96838;-77
2023/01/10 09:28:18;;;;;;;7.72;3.92;;;;;;;8.26;66.09;100188.44;5029154;27;97098;-77
2023/01/10 09:30:44;;;;;;;15.10;4.47;;;;;;;8.26;66.35;100193.69;5070693;27;98000;-77
2023/01/10 09:33:10;;;;;;;8.60;3.97;;;;;;;8.28;66.14;100200.59;5032240;27;101018;-77
2023/01/10 09:35:38;;;;;;;8.13;3.72;;;;;;;8.28;65.98;100204.97;5069390;27;97700;-77
2023/01/10 09:38:09;;;;;;;8.40;4.05;;;;;;;8.26;66.07;100204.13;5043486;27;97684;-77
2023/01/10 09:41:11;;;;;;;4.88;3.50;;;;;;;8.31;66.39;100215.34;5058396;27;101541;-80
2023/01/10 09:44:14;;;;;;;10.18;3.80;;;;;;;8.31;66.36;100220.56;5036700;27;101026;-81
2023/01/10 09:46:49;;;;;;;6.97;4.38;;;;;;;8.22;66.00;100203.38;5073453;27;97911;-82
2023/01/10 09:49:24;;;;;;;7.82;4.07;;;;;;;8.37;66.27;100217.78;5059067;27;96888;-82
2023/01/10 09:51:51;;;;;;;7.93;3.58;;;;;;;8.28;66.32;100200.59;5041610;27;101328;-82
2023/01/10 09:54:28;;;;;;;9.52;4.18;;;;;;;8.38;66.22;100222.16;5083714;27;97906;-83
2023/01/10 09:56:54;;;;;;;7.15;3.65;;;;;;;8.43;65.91;100227.28;5055448;27;97139;-80
2023/01/10 09:59:25;;;;;;;8.15;3.70;;;;;;;8.43;66.19;100233.34;5069334;27;97449;-82
2023/01/10 10:02:30;;;;;;;6.05;3.67;;;;;;;8.46;66.10;100235.03;5049813;27;100258;-82
2023/01/10 10:05:31;;;;;;;5.38;3.45;;;;;;;8.45;66.56;100242.03;5005551;27;101415;-82
2023/01/10 10:08:01;;;;;;;8.13;3.83;;;;;;;8.51;66.13;100241.88;4970579;28;97130;-82
2023/01/10 10:10:47;;;;;;;13.88;5.25;;;;;;;8.56;66.71;100253.06;5070631;27;96935;-81
2023/01/10 10:13:45;;;;;;;8.73;4.95;;;;;;;8.60;66.49;100256.47;5056049;27;101318;-84
2023/01/10 10:16:33;;;;;;;14.63;6.82;;;;;;;8.65;66.67;100257.19;4994633;27;101417;-80
2023/01/10 10:19:21;;;;;;;11.82;5.95;;;;;;;8.71;66.49;100262.25;5067688;27;96758;-81
2023/01/10 10:21:54;;;;;;;11.50;4.78;;;;;;;8.75;66.46;100255.19;5060156;27;97114;-81
2023/01/10 10:24:59;;;;;;;18.23;7.25;;;;;;;8.79;66.35;100262.06;5060869;27;98341;-81
2023/01/10 10:27:27;;;;;;;10.80;4.70;;;;;;;8.80;66.38;100264.63;5065833;27;98094;-81
2023/01/10 10:30:07;;;;;;;8.57;4.53;;;;;;;8.82;65.93;100262.84;5078428;27;97207;-81
2023/01/10 10:32:43;;;;;;;10.10;4.78;;;;;;;8.72;66.80;100243.03;5058864;27;96874;-82
2023/01/10 10:35:22;;;;;;;7.80;4.50;;;;;;;8.87;65.98;100267.06;5076952;27;97604;-81
2023/01/10 10:37:51;;;;;;;9.07;4.68;;;;;;;8.89;66.21;100270.50;5034865;27;101340;-80
2023/01/10 10:40:19;;;;;;;8.25;4.00;;;;;;;8.91;66.97;100263.47;5027506;27;97616;-81
2023/01/10 10:42:47;;;;;;;6.63;3.38;;;;;;;8.95;66.60;100272.97;5047892;27;97391;-81
2023/01/10 10:45:23;;;;;;;17.23;5.05;;;;;;;8.94;66.46;100271.25;5043573;27;101268;-82
2023/01/10 10:47:54;;;;;;;8.02;4.05;;;;;;;8.95;66.91;100273.81;5040019;27;98271;-81
2023/01/10 10:50:23;;;;;;;6.47;4.13;;;;;;;8.98;66.53;100284.19;5067655;27;97010;-82
2023/01/10 10:52:48;;;;;;;7.72;3.72;;;;;;;8.98;66.69;100271.09;5058020;27;97428;-81
2023/01/10 10:55:16;;;;;;;5.80;3.45;;;;;;;8.99;66.21;100274.59;5030662;27;101578;-82
2023/01/10 10:57:44;;;;;;;8.40;4.10;;;;;;;8.99;66.80;100270.22;5033916;27;98004;-82
2023/01/10 11:00:14;;;;;;;9.07;4.18;;;;;;;9.02;66.54;100282.38;5029829;27;96888;-82
2023/01/10 11:02:49;;;;;;;7.68;4.07;;;;;;;9.03;66.86;100276.22;5037827;27;98278;-82
2023/01/10 11:05:18;;;;;;;11.00;4.55;;;;;;;9.03;66.77;100270.97;5053579;27;101570;-82
2023/01/10 11:07:44;;;;;;;10.18;3.92;;;;;;;9.00;66.54;100263.22;5037272;27;100789;-81
2023/01/10 11:10:33;;;;;;;9.60;4.30;;;;;;;9.03;66.38;100263.13;5045228;27;97202;-82
2023/01/10 11:13:01;;;;;;;12.23;4.47;;;;;;;8.90;66.83;100259.13;5033107;27;96963;-81
2023/01/10 11:15:37;;;;;;;11.63;4.93;;;;;;;8.91;66.38;100266.09;5038119;27;101056;-79
2023/01/10 11:18:15;;;;;;;11.50;4.20;;;;;;;8.88;66.46;100259.19;5052893;27;101460;-80
2023/01/10 11:20:47;;;;;;;12.73;5.68;;;;;;;9.00;66.80;100274.53;5042678;27;97704;-82
2023/01/10 11:23:21;;;;;;;11.90;4.40;;;;;;;8.88;66.45;100258.34;5049628;27;97011;-82
2023/01/10 11:25:48;;;;;;;10.25;5.05;;;;;;;8.99;66.27;100277.22;5033044;27;100174;-82
2023/01/10 11:28:17;;;;;;;13.18;5.15;;;;;;;8.99;66.71;100283.31;5058297;27;101461;-82
2023/01/10 11:30:46;;;;;;;8.27;4.63;;;;;;;8.98;66.35;100278.94;5059673;27;96945;-82
2023/01/10 11:33:19;;;;;;;9.85;4.60;;;;;;;8.98;66.22;100285.97;5050166;27;97706;-82
2023/01/10 11:36:05;;;;;;;11.18;4.55;;;;;;;8.89;66.62;100279.22;5051970;27;100986;-82
2023/01/10 11:38:31;;;;;;;10.65;4.68;;;;;;;9.02;66.65;100295.47;5076641;27;97840;-82
2023/01/10 11:41:05;;;;;;;10.02;3.90;;;;;;;9.02;66.39;100303.31;5059152;27;96825;-81
2023/01/10 11:43:40;;;;;;;13.85;5.18;;;;;;;9.04;66.62;100298.88;5029515;27;98044;-82
2023/01/10 11:46:20;;;;;;;26.42;5.15;;;;;;;9.06;66.27;100291.84;5071324;27;98560;-82
2023/01/10 11:48:50;;;;;;;9.82;4.13;;;;;;;8.99;66.46;100285.06;5044608;27;101340;-82
2023/01/10 11:51:37;;;;;;;13.13;4.18;;;;;;;9.09;66.50;100306.63;5074397;27;97350;-82